Time;durP1;ratioP1;P1;durP2;ratioP2;P2;SDS_P1;SDS_P2;PMS_P1;PMS_P2;Temp;Humidity;BMP_temperature;BMP_pressure;BME280_temperature;BME280_humidity;BME280_pressure;Samples;Min_cycle;Max_cycle;Signal;HPM_P1;HPM_P2
2022/08/05 00:00:01;;;;;;;2.97;2.60;;;;;;;16.87;100.00;101604.50;5017719;28;20045;-74
2022/08/05 00:02:27;;;;;;;2.47;2.22;;;;;;;16.87;100.00;101612.50;5017614;28;20041;-74
2022/08/05 00:04:52;;;;;;;3.30;2.38;;;;;;;16.87;100.00;101611.63;5018694;28;20610;-73
2022/08/05 00:07:18;;;;;;;2.35;2.15;;;;;;;16.84;100.00;101616.22;5017965;28;20037;-75
2022/08/05 00:09:43;;;;;;;4.70;2.33;;;;;;;16.83;100.00;101603.81;5001200;28;20032;-73
2022/08/05 00:12:09;;;;;;;2.75;2.10;;;;;;;16.80;100.00;101600.47;5018888;28;20017;-74
2022/08/05 00:14:34;;;;;;;2.67;2.03;;;;;;;16.78;100.00;101603.22;5020006;28;20408;-74
2022/08/05 00:17:00;;;;;;;3.40;1.90;;;;;;;16.79;100.00;101593.41;5018583;28;20514;-73
2022/08/05 00:19:26;;;;;;;2.83;2.08;;;;;;;16.78;100.00;101597.03;5017218;28;20443;-74
2022/08/05 00:21:51;;;;;;;2.85;2.38;;;;;;;16.77;100.00;101590.81;5017829;28;20023;-75
2022/08/05 00:24:18;;;;;;;3.58;2.70;;;;;;;16.76;100.00;101588.22;5016632;28;20041;-74
2022/08/05 00:26:43;;;;;;;3.97;2.55;;;;;;;16.77;100.00;101584.63;5018081;28;20776;-73
2022/08/05 00:29:09;;;;;;;3.10;2.80;;;;;;;16.76;100.00;101588.22;5018238;28;20044;-73
2022/08/05 00:31:34;;;;;;;2.80;2.55;;;;;;;16.74;100.00;101587.47;5017811;28;20119;-74
2022/08/05 00:34:00;;;;;;;4.45;2.60;;;;;;;16.73;100.00;101585.75;5017279;28;20521;-74
2022/08/05 00:36:26;;;;;;;4.65;2.78;;;;;;;16.72;100.00;101584.03;5017499;28;20037;-73
2022/08/05 00:38:51;;;;;;;3.20;2.25;;;;;;;16.72;100.00;101586.69;5005596;28;20033;-74
2022/08/05 00:41:31;;;;;;;2.63;2.42;;;;;;;16.69;100.00;101591.25;5000833;28;20420;-73
2022/08/05 00:43:56;;;;;;;2.75;2.55;;;;;;;16.68;100.00;101592.22;5018305;28;20130;-74
2022/08/05 00:46:22;;;;;;;2.38;2.17;;;;;;;16.69;100.00;101603.78;5014436;28;20041;-72
2022/08/05 00:48:48;;;;;;;4.03;2.30;;;;;;;16.70;100.00;101610.84;5015784;28;20397;-74
2022/08/05 00:51:14;;;;;;;2.42;2.22;;;;;;;16.73;100.00;101605.34;5014807;28;20033;-73
2022/08/05 00:53:40;;;;;;;2.67;2.10;;;;;;;16.75;100.00;101600.75;5014420;28;20037;-73
2022/08/05 00:56:05;;;;;;;2.22;2.00;;;;;;;16.78;100.00;101597.03;5014888;28;20044;-74
2022/08/05 00:58:31;;;;;;;4.03;2.10;;;;;;;16.80;100.00;101595.13;5017374;28;20048;-74
2022/08/05 01:00:59;;;;;;;3.03;2.17;;;;;;;16.81;100.00;101599.50;5006137;28;20026;-74
2022/08/05 01:03:25;;;;;;;2.83;1.88;;;;;;;16.83;100.00;101605.63;5018426;28;20127;-73
2022/08/05 01:05:51;;;;;;;2.30;2.10;;;;;;;16.84;100.00;101602.84;5017264;28;20109;-73
2022/08/05 01:08:20;;;;;;;2.67;2.20;;;;;;;16.87;100.00;101607.16;5016362;28;20061;-73
2022/08/05 01:10:59;;;;;;;4.90;2.47;;;;;;;16.89;100.00;101613.28;4992113;28;20021;-75
2022/08/05 01:13:37;;;;;;;3.67;1.92;;;;;;;16.90;100.00;101617.69;5016034;28;20091;-74
2022/08/05 01:16:04;;;;;;;2.20;2.00;;;;;;;16.90;100.00;101612.34;5000442;28;20061;-74
2022/08/05 01:18:33;;;;;;;4.85;2.55;;;;;;;16.91;100.00;101619.41;5017081;28;20037;-73
2022/08/05 01:21:22;;;;;;;4.82;2.28;;;;;;;16.92;100.00;101618.44;5020540;28;20034;-75
2022/08/05 01:24:05;;;;;;;2.22;1.92;;;;;;;16.93;100.00;101611.28;5022255;28;20135;-73
2022/08/05 01:26:39;;;;;;;2.75;2.20;;;;;;;16.94;100.00;101610.34;4994623;28;20033;-74
2022/08/05 01:29:16;;;;;;;3.17;2.10;;;;;;;16.95;100.00;101617.41;5021196;28;20041;-73
2022/08/05 01:31:48;;;;;;;2.95;2.60;;;;;;;16.95;100.00;101623.59;5005407;28;20057;-74
2022/08/05 01:34:34;;;;;;;4.80;2.60;;;;;;;16.94;100.00;101613.03;5016951;28;20033;-74
2022/08/05 01:37:16;;;;;;;5.70;3.08;;;;;;;16.94;100.00;101602.31;5018525;28;20044;-74
2022/08/05 01:39:43;;;;;;;6.80;2.85;;;;;;;16.91;100.00;101597.13;5001869;28;20037;-74
2022/08/05 01:42:12;;;;;;;3.80;2.97;;;;;;;16.87;100.00;101593.78;5017982;28;20376;-75
2022/08/05 01:44:38;;;;;;;4.45;3.25;;;;;;;16.85;100.00;101595.72;5001915;28;20038;-74
2022/08/05 01:47:04;;;;;;;4.28;2.90;;;;;;;16.81;100.00;101607.53;5019614;28;20025;-75
2022/08/05 01:49:31;;;;;;;3.72;3.10;;;;;;;16.77;100.00;101611.34;5003362;28;21914;-74
2022/08/05 01:51:59;;;;;;;3.65;3.05;;;;;;;16.74;100.00;101606.19;5017647;28;20022;-73
2022/08/05 01:54:29;;;;;;;5.57;2.83;;;;;;;16.72;100.00;101602.75;5016945;28;20522;-73
2022/08/05 01:56:55;;;;;;;3.85;3.03;;;;;;;16.72;100.00;101602.75;5018578;28;20033;-74
2022/08/05 01:59:21;;;;;;;4.47;3.35;;;;;;;16.70;100.00;101598.34;5036470;28;20411;-74
2022/08/05 02:01:48;;;;;;;3.17;2.83;;;;;;;16.68;100.00;101599.38;5017292;28;20756;-75
2022/08/05 02:04:15;;;;;;;3.72;2.90;;;;;;;16.62;100.00;101595.25;5018507;28;20511;-73
2022/08/05 02:06:41;;;;;;;3.45;2.78;;;;;;;16.59;100.00;101614.16;5003125;28;20404;-74
2022/08/05 02:09:07;;;;;;;4.88;3.08;;;;;;;16.53;100.00;101602.03;5021848;28;20030;-73
2022/08/05 02:11:56;;;;;;;3.22;2.95;;;;;;;16.52;100.00;101592.25;5017753;28;20294;-73
2022/08/05 02:14:33;;;;;;;4.00;2.88;;;;;;;16.48;100.00;101589.88;5020703;28;20042;-73
2022/08/05 02:17:16;;;;;;;2.88;2.65;;;;;;;16.45;100.00;101584.72;5022472;28;20073;-73
2022/08/05 02:19:54;;;;;;;3.40;3.05;;;;;;;16.41;100.00;101598.22;5019471;28;20736;-74
2022/08/05 02:22:36;;;;;;;5.95;3.13;;;;;;;16.40;100.00;101593.00;5020088;28;20052;-74
2022/08/05 02:25:05;;;;;;;3.90;2.80;;;;;;;16.38;100.00;101602.91;5020446;28;20034;-74
2022/08/05 02:27:35;;;;;;;3.50;2.90;;;;;;;16.36;100.00;101604.81;5033986;28;20623;-73
2022/08/05 02:30:01;;;;;;;4.60;3.15;;;;;;;16.34;100.00;101604.88;5018481;28;20075;-73
2022/08/05 02:32:29;;;;;;;3.83;3.00;;;;;;;16.32;100.00;101604.13;5019501;28;20035;-74
2022/08/05 02:34:58;;;;;;;6.40;2.92;;;;;;;16.31;100.00;101604.22;5019746;28;20067;-73
2022/08/05 02:37:24;;;;;;;5.95;2.90;;;;;;;16.32;100.00;101600.59;5019321;28;20045;-73
2022/08/05 02:39:50;;;;;;;5.05;3.13;;;;;;;16.30;100.00;101603.38;5018594;28;20030;-73
2022/08/05 02:42:19;;;;;;;7.00;2.90;;;;;;;16.28;100.00;101623.94;5016694;28;20518;-74
2022/08/05 02:44:48;;;;;;;4.00;3.30;;;;;;;16.26;100.00;101617.84;5018868;28;20396;-74
2022/08/05 02:47:14;;;;;;;3.28;2.97;;;;;;;16.26;100.00;101625.84;5019283;28;20515;-75
2022/08/05 02:49:41;;;;;;;4.32;3.00;;;;;;;16.25;100.00;101629.47;4997267;28;20037;-74
2022/08/05 02:52:14;;;;;;;5.15;3.10;;;;;;;16.26;100.00;101631.19;5009210;28;20420;-73
2022/08/05 02:54:41;;;;;;;7.88;3.17;;;;;;;16.26;100.00;101620.50;5017549;28;20056;-73
2022/08/05 02:57:10;;;;;;;3.28;3.00;;;;;;;16.25;100.00;101614.28;5000132;28;20064;-75
2022/08/05 02:59:36;;;;;;;3.20;2.95;;;;;;;16.26;100.00;101618.72;5018128;28;20029;-73
2022/08/05 03:02:03;;;;;;;3.75;3.08;;;;;;;16.26;100.00;101615.16;5017015;28;20099;-73
2022/08/05 03:04:28;;;;;;;3.58;3.03;;;;;;;16.27;100.00;101619.56;5009462;28;20103;-73
2022/08/05 03:06:54;;;;;;;4.30;3.22;;;;;;;16.25;100.00;101608.94;5019280;28;20033;-74
2022/08/05 03:09:20;;;;;;;3.67;3.00;;;;;;;16.23;100.00;101618.88;5002203;28;20044;-74
2022/08/05 03:11:45;;;;;;;4.63;3.17;;;;;;;16.22;100.00;101616.28;5015954;28;20036;-75
2022/08/05 03:14:11;;;;;;;2.75;2.55;;;;;;;16.21;100.00;101612.75;5018943;28;20424;-74
2022/08/05 03:16:37;;;;;;;3.33;3.00;;;;;;;16.20;100.00;101611.03;5017428;28;20064;-75
2022/08/05 03:19:03;;;;;;;4.45;2.90;;;;;;;16.19;100.00;101611.13;5017521;28;20048;-73
2022/08/05 03:21:29;;;;;;;3.50;3.20;;;;;;;16.18;100.00;101612.06;5021438;28;20642;-75
2022/08/05 03:23:54;;;;;;;4.55;3.20;;;;;;;16.17;100.00;101613.88;5022206;28;20119;-74
2022/08/05 03:26:20;;;;;;;4.22;3.03;;;;;;;16.15;100.00;101611.31;5002541;28;20071;-74
2022/08/05 03:28:46;;;;;;;4.28;3.10;;;;;;;16.12;100.00;101611.47;5001237;28;20108;-74
2022/08/05 03:31:12;;;;;;;3.13;2.83;;;;;;;16.10;100.00;101615.19;5001382;28;20026;-75
2022/08/05 03:33:38;;;;;;;4.35;3.17;;;;;;;16.07;100.00;101612.69;5016695;28;20029;-74
2022/08/05 03:36:04;;;;;;;6.28;2.90;;;;;;;16.06;100.00;101608.31;5018913;28;20890;-73
2022/08/05 03:38:30;;;;;;;3.85;2.92;;;;;;;16.05;100.00;101617.22;5010253;28;20041;-73
2022/08/05 03:40:55;;;;;;;4.50;3.45;;;;;;;16.01;100.00;101604.06;5016522;28;20021;-75
2022/08/05 03:43:24;;;;;;;4.32;3.42;;;;;;;16.01;100.00;101597.84;5018293;28;20033;-74
2022/08/05 03:45:55;;;;;;;3.42;3.13;;;;;;;15.99;100.00;101594.41;5001256;28;20491;-75
2022/08/05 03:48:21;;;;;;;5.15;3.45;;;;;;;16.00;100.00;101593.47;5031362;28;20101;-73
2022/08/05 03:51:05;;;;;;;3.90;3.42;;;;;;;15.99;100.00;101589.06;5017167;28;20041;-74
2022/08/05 03:53:41;;;;;;;3.70;3.25;;;;;;;15.97;100.00;101591.81;5019165;28;20468;-72
2022/08/05 03:56:11;;;;;;;4.13;3.40;;;;;;;15.95;100.00;101593.72;5016865;28;20144;-73
2022/08/05 03:58:38;;;;;;;3.80;3.20;;;;;;;15.95;100.00;101592.88;5009757;28;20552;-75
2022/08/05 04:01:06;;;;;;;3.83;3.42;;;;;;;15.95;100.00;101592.88;5018082;28;20259;-74
2022/08/05 04:03:34;;;;;;;4.38;3.28;;;;;;;15.94;100.00;101597.34;5016751;28;20191;-75
2022/08/05 04:06:04;;;;;;;3.90;3.15;;;;;;;15.94;100.00;101593.81;5017474;28;20056;-73
2022/08/05 04:08:32;;;;;;;4.82;2.97;;;;;;;15.93;100.00;101592.97;5018115;28;20068;-73
2022/08/05 04:11:02;;;;;;;3.20;2.78;;;;;;;15.94;100.00;101604.50;4999962;28;20404;-75
2022/08/05 04:13:29;;;;;;;3.72;3.00;;;;;;;15.93;100.00;101606.31;5009162;28;20500;-73
2022/08/05 04:15:55;;;;;;;4.15;3.40;;;;;;;15.95;100.00;101603.56;5015519;28;20065;-74
2022/08/05 04:18:24;;;;;;;3.47;3.17;;;;;;;15.95;100.00;101604.41;5009842;28;20085;-75
2022/08/05 04:20:57;;;;;;;3.45;3.15;;;;;;;15.96;100.00;101600.78;5018880;28;20025;-74
2022/08/05 04:23:24;;;;;;;6.55;3.30;;;;;;;15.97;100.00;101613.19;5018923;28;20033;-74
2022/08/05 04:25:51;;;;;;;5.30;3.10;;;;;;;15.98;100.00;101614.06;5019869;28;20033;-74
2022/08/05 04:28:17;;;;;;;3.83;3.00;;;;;;;15.99;100.00;101621.13;5019104;28;20040;-75
2022/08/05 04:30:43;;;;;;;4.75;2.85;;;;;;;15.99;100.00;101618.44;5017168;28;20025;-75
2022/08/05 04:33:09;;;;;;;4.47;3.60;;;;;;;16.00;100.00;101617.50;4987965;28;20026;-73
2022/08/05 04:35:35;;;;;;;2.83;2.63;;;;;;;15.97;100.00;101629.22;5020046;28;20048;-74
2022/08/05 04:38:00;;;;;;;4.45;2.97;;;;;;;15.98;100.00;101627.41;5017107;28;20037;-74
2022/08/05 04:40:26;;;;;;;3.13;2.83;;;;;;;15.97;100.00;101623.03;5016401;28;20060;-73
2022/08/05 04:42:51;;;;;;;4.20;3.25;;;;;;;15.95;100.00;101631.13;5021328;28;20033;-75
2022/08/05 04:45:17;;;;;;;3.15;2.90;;;;;;;15.93;100.00;101627.69;5020198;28;21865;-74
2022/08/05 04:47:42;;;;;;;3.53;2.97;;;;;;;15.93;100.00;101625.00;5009009;28;20041;-74
2022/08/05 04:50:08;;;;;;;3.88;3.13;;;;;;;15.93;100.00;101629.47;5021726;28;20043;-74
2022/08/05 04:52:33;;;;;;;3.85;3.17;;;;;;;15.93;100.00;101634.81;5021465;28;20111;-73
2022/08/05 04:54:59;;;;;;;3.50;2.95;;;;;;;15.91;100.00;101634.84;5020493;28;20109;-74
2022/08/05 04:57:25;;;;;;;4.07;3.10;;;;;;;15.91;100.00;101626.84;5023553;28;20045;-74
2022/08/05 04:59:50;;;;;;;3.40;3.10;;;;;;;15.93;100.00;101627.69;5025643;28;20492;-73
2022/08/05 05:02:16;;;;;;;4.55;3.17;;;;;;;15.96;100.00;101637.34;5025361;28;20044;-74
2022/08/05 05:04:42;;;;;;;3.72;3.13;;;;;;;15.96;100.00;101632.00;5023786;28;20041;-73
2022/08/05 05:07:07;;;;;;;3.28;2.60;;;;;;;15.98;100.00;101643.44;5025631;28;20694;-74
2022/08/05 05:09:33;;;;;;;3.30;3.00;;;;;;;16.00;100.00;101639.75;5007272;28;20083;-74
2022/08/05 05:11:58;;;;;;;2.80;2.55;;;;;;;16.01;100.00;101637.91;5015115;28;20029;-75
2022/08/05 05:14:24;;;;;;;4.53;3.10;;;;;;;16.02;100.00;101624.47;5024539;28;20057;-73
2022/08/05 05:16:49;;;;;;;3.17;2.70;;;;;;;16.05;100.00;101625.25;5024120;28;20061;-75
2022/08/05 05:19:15;;;;;;;4.03;2.90;;;;;;;16.04;100.00;101626.19;5023315;28;20040;-74
2022/08/05 05:21:40;;;;;;;3.75;2.78;;;;;;;16.03;100.00;101628.03;5024589;28;20056;-74
2022/08/05 05:24:06;;;;;;;4.45;2.92;;;;;;;16.04;100.00;101627.06;4997038;28;20152;-74
2022/08/05 05:26:31;;;;;;;3.15;2.85;;;;;;;16.05;100.00;101630.59;5022501;28;20443;-75
2022/08/05 05:28:57;;;;;;;3.53;3.00;;;;;;;16.06;100.00;101635.84;5004777;28;20052;-75
2022/08/05 05:31:22;;;;;;;4.30;3.25;;;;;;;16.06;100.00;101627.84;5022795;28;20064;-75
2022/08/05 05:33:48;;;;;;;3.83;3.05;;;;;;;16.11;100.00;101627.56;5023626;28;20112;-75
2022/08/05 05:36:13;;;;;;;4.68;3.25;;;;;;;16.14;100.00;101624.75;5023513;28;20037;-75
2022/08/05 05:38:39;;;;;;;3.08;2.80;;;;;;;16.20;100.00;101623.53;5023682;28;20041;-74
2022/08/05 05:41:04;;;;;;;3.97;3.00;;;;;;;16.24;100.00;101633.09;5024020;28;20756;-74
2022/08/05 05:43:30;;;;;;;7.22;2.78;;;;;;;16.28;100.00;101624.81;5025693;28;20063;-75
2022/08/05 05:45:55;;;;;;;5.18;3.25;;;;;;;16.33;100.00;101621.03;5024008;28;20043;-74
2022/08/05 05:48:21;;;;;;;3.38;3.00;;;;;;;16.36;100.00;101629.72;5020112;28;20103;-74
2022/08/05 05:50:46;;;;;;;4.57;3.45;;;;;;;16.43;100.00;101636.44;5021322;28;20053;-74
2022/08/05 05:53:12;;;;;;;6.18;3.30;;;;;;;16.52;100.00;101628.84;5021151;28;20132;-73
2022/08/05 05:55:37;;;;;;;5.15;3.47;;;;;;;16.66;100.00;101620.88;5020109;28;20061;-72
2022/08/05 05:58:03;;;;;;;3.70;3.40;;;;;;;16.84;100.00;101624.25;5021827;28;20041;-74
2022/08/05 06:00:28;;;;;;;3.17;2.88;;;;;;;17.02;100.00;101621.47;5022533;28;20033;-74
2022/08/05 06:02:54;;;;;;;4.30;3.20;;;;;;;17.17;100.00;101622.31;5022391;28;20570;-75
2022/08/05 06:05:20;;;;;;;3.20;2.90;;;;;;;17.31;100.00;101620.63;5024784;28;20029;-74
2022/08/05 06:07:45;;;;;;;4.55;2.90;;;;;;;17.40;100.00;101621.88;5022945;28;20044;-73
2022/08/05 06:10:12;;;;;;;4.82;2.88;;;;;;;17.54;100.00;101621.00;5022202;28;20037;-74
2022/08/05 06:12:38;;;;;;;3.03;2.60;;;;;;;17.71;100.00;101628.81;5022586;28;20068;-74
2022/08/05 06:15:05;;;;;;;5.85;3.03;;;;;;;17.94;100.00;101622.97;5012083;28;20132;-74
2022/08/05 06:17:31;;;;;;;3.90;2.70;;;;;;;18.13;100.00;101623.53;5025498;28;20443;-73
2022/08/05 06:19:57;;;;;;;3.75;3.08;;;;;;;18.32;100.00;101625.84;5023762;28;20033;-74
2022/08/05 06:22:24;;;;;;;2.65;2.45;;;;;;;18.56;100.00;101632.34;5021837;28;20037;-74
2022/08/05 06:24:50;;;;;;;3.08;2.28;;;;;;;18.73;100.00;101625.84;5040243;28;20034;-73
2022/08/05 06:27:16;;;;;;;3.97;2.25;;;;;;;18.87;100.00;101632.97;5024336;28;20115;-74
2022/08/05 06:29:41;;;;;;;1.92;1.77;;;;;;;19.06;100.00;101631.75;5023961;28;20045;-74
2022/08/05 06:32:08;;;;;;;2.78;1.90;;;;;;;19.26;99.35;101630.34;5024749;28;20018;-75
2022/08/05 06:34:33;;;;;;;2.97;1.55;;;;;;;19.46;98.91;101628.06;5021149;28;20048;-74
2022/08/05 06:36:59;;;;;;;2.00;1.80;;;;;;;19.61;98.18;101629.66;5024152;28;20041;-74
2022/08/05 06:39:25;;;;;;;2.63;1.40;;;;;;;19.75;97.97;101633.19;5024138;28;20080;-76
2022/08/05 06:41:51;;;;;;;1.02;1.00;;;;;;;19.92;96.50;101632.81;4997633;28;20075;-76
2022/08/05 06:44:17;;;;;;;0.63;0.63;;;;;;;20.07;95.74;101632.69;5006163;28;20068;-75
2022/08/05 06:46:42;;;;;;;1.23;0.90;;;;;;;20.14;94.36;101638.47;5022799;28;20044;-76
2022/08/05 06:49:08;;;;;;;2.03;0.90;;;;;;;20.21;93.91;101629.84;5023983;28;20033;-75
2022/08/05 06:51:33;;;;;;;1.23;0.90;;;;;;;20.37;93.07;101623.31;5016359;28;20033;-75
2022/08/05 06:54:03;;;;;;;2.50;0.70;;;;;;;20.44;90.82;101629.09;5024342;28;20033;-76
2022/08/05 06:56:30;;;;;;;0.70;0.70;;;;;;;20.47;91.56;101635.09;5014610;28;20095;-75
2022/08/05 06:58:56;;;;;;;1.75;0.60;;;;;;;20.45;92.02;101626.31;5022035;28;20093;-75
2022/08/05 07:01:22;;;;;;;0.65;0.52;;;;;;;20.40;90.81;101638.34;5025106;28;20036;-76
2022/08/05 07:03:47;;;;;;;4.32;0.63;;;;;;;20.17;90.82;101647.19;5024045;28;20037;-75
2022/08/05 07:06:13;;;;;;;1.48;0.65;;;;;;;20.09;90.47;101636.13;5024682;28;21431;-74
2022/08/05 07:08:38;;;;;;;1.42;0.60;;;;;;;20.06;90.83;101649.78;5020427;28;20501;-77
2022/08/05 07:11:05;;;;;;;0.70;0.50;;;;;;;20.03;90.27;101650.00;5023332;28;20743;-77
2022/08/05 07:19:02;;;;;;;1.20;0.70;;;;;;;20.10;89.25;101664.72;5020912;28;20037;-76
2022/08/05 07:21:28;;;;;;;0.68;0.60;;;;;;;20.12;87.97;101667.28;5023298;28;20380;-77
2022/08/05 07:23:53;;;;;;;0.68;0.50;;;;;;;20.04;87.87;101659.81;5023316;28;20031;-76
2022/08/05 07:26:19;;;;;;;1.33;0.57;;;;;;;20.02;88.87;101673.34;5024687;28;20635;-76
2022/08/05 07:28:44;;;;;;;1.83;0.50;;;;;;;19.93;88.62;101672.16;5024829;28;20167;-76
2022/08/05 07:31:10;;;;;;;0.70;0.50;;;;;;;19.82;89.08;101685.50;5024857;28;20706;-76
2022/08/05 07:33:35;;;;;;;1.20;0.50;;;;;;;19.79;89.01;101681.19;5025081;28;20136;-75
2022/08/05 07:36:01;;;;;;;0.75;0.57;;;;;;;19.85;88.77;101687.97;5024863;28;20045;-75
2022/08/05 07:38:27;;;;;;;0.50;0.50;;;;;;;20.00;88.25;101693.25;5023299;28;20037;-75
2022/08/05 07:40:52;;;;;;;1.05;0.70;;;;;;;20.19;88.34;101690.06;5024952;28;20031;-75
2022/08/05 07:43:18;;;;;;;0.50;0.50;;;;;;;20.30;86.63;101697.34;5022520;28;20056;-77
2022/08/05 07:45:43;;;;;;;1.25;0.50;;;;;;;20.32;86.81;101696.25;5025825;28;20045;-75
2022/08/05 07:48:10;;;;;;;2.03;0.80;;;;;;;20.38;86.44;101699.47;5023926;28;20088;-77
2022/08/05 07:50:35;;;;;;;1.27;0.60;;;;;;;20.29;85.54;101692.94;5023237;28;20045;-76
2022/08/05 07:53:01;;;;;;;0.63;0.60;;;;;;;20.13;82.55;101703.94;5023102;28;20018;-76
2022/08/05 07:55:26;;;;;;;0.70;0.63;;;;;;;20.10;84.68;101693.44;5013425;28;20025;-75
2022/08/05 07:57:52;;;;;;;0.65;0.55;;;;;;;20.22;81.96;101704.13;5018231;28;20299;-76
2022/08/05 08:00:17;;;;;;;0.95;0.40;;;;;;;20.29;82.86;101701.88;5020339;28;20036;-76
2022/08/05 08:02:43;;;;;;;0.98;0.50;;;;;;;20.49;82.64;101696.84;5022223;28;20022;-75
2022/08/05 08:05:08;;;;;;;0.50;0.50;;;;;;;20.80;82.39;101701.75;5024566;28;20487;-76
2022/08/05 08:07:34;;;;;;;0.70;0.50;;;;;;;20.99;81.60;101696.72;5021207;28;20025;-76
2022/08/05 08:10:00;;;;;;;0.73;0.45;;;;;;;21.22;81.17;101706.66;5022006;28;20112;-75
2022/08/05 08:12:25;;;;;;;0.40;0.40;;;;;;;21.36;79.89;101708.31;5021517;28;20025;-75
2022/08/05 08:14:51;;;;;;;0.63;0.38;;;;;;;21.28;79.54;101725.91;5023462;28;20061;-76
2022/08/05 08:17:17;;;;;;;0.38;0.30;;;;;;;20.95;78.97;101730.22;5005861;28;20089;-75
2022/08/05 08:19:43;;;;;;;0.40;0.40;;;;;;;20.70;78.26;101726.66;5018418;28;20041;-76
2022/08/05 08:22:09;;;;;;;0.50;0.40;;;;;;;20.53;77.97;101725.22;5015228;28;20037;-75
2022/08/05 08:24:35;;;;;;;2.58;0.50;;;;;;;20.52;78.46;101720.81;5004667;28;20021;-76
2022/08/05 08:27:02;;;;;;;0.77;0.40;;;;;;;20.62;78.47;101724.56;5022942;28;20033;-76
2022/08/05 08:29:27;;;;;;;0.40;0.40;;;;;;;20.83;78.54;101725.72;5019873;28;20280;-76
2022/08/05 08:31:53;;;;;;;1.75;0.45;;;;;;;20.97;77.33;101725.56;5021696;28;20037;-75
2022/08/05 08:34:21;;;;;;;0.73;0.52;;;;;;;21.05;76.41;101738.44;5021061;28;20473;-75
2022/08/05 08:36:47;;;;;;;0.40;0.40;;;;;;;20.95;75.58;101732.03;5022194;28;20071;-77
2022/08/05 08:39:13;;;;;;;0.30;0.30;;;;;;;20.93;75.87;101734.88;5022612;28;20056;-76
2022/08/05 08:41:42;;;;;;;2.08;0.95;;;;;;;21.06;74.90;101737.47;5018748;28;20388;-76
2022/08/05 08:44:14;;;;;;;2.38;0.90;;;;;;;21.17;74.71;101728.56;5023107;28;20048;-76
2022/08/05 08:46:40;;;;;;;1.05;0.50;;;;;;;21.27;72.26;101732.28;5012531;28;20044;-75
2022/08/05 08:49:06;;;;;;;1.33;0.47;;;;;;;21.32;72.60;101741.81;5025431;28;20029;-76
2022/08/05 08:51:36;;;;;;;0.45;0.25;;;;;;;21.35;70.34;101741.59;5023100;28;20037;-76
2022/08/05 08:54:04;;;;;;;0.30;0.30;;;;;;;21.33;71.58;101743.53;5022310;28;20033;-75
2022/08/05 08:56:31;;;;;;;0.85;0.50;;;;;;;21.36;70.78;101749.53;5023238;28;20043;-76
2022/08/05 08:58:58;;;;;;;0.50;0.32;;;;;;;21.40;70.60;101734.00;5024862;28;20048;-76
2022/08/05 09:01:26;;;;;;;0.30;0.30;;;;;;;21.46;70.83;101744.28;5005967;28;20100;-77
2022/08/05 09:03:55;;;;;;;0.55;0.50;;;;;;;21.53;68.85;101745.53;5024738;28;20061;-76
2022/08/05 09:06:25;;;;;;;0.32;0.30;;;;;;;21.56;66.50;101739.91;5018456;28;20069;-76
2022/08/05 09:08:50;;;;;;;0.30;0.30;;;;;;;21.73;67.05;101736.91;5018625;28;20120;-77
2022/08/05 09:11:16;;;;;;;1.20;0.28;;;;;;;21.74;64.06;101747.56;5022441;28;20043;-76
2022/08/05 09:13:44;;;;;;;1.10;0.20;;;;;;;21.78;65.76;101749.03;5016084;28;20040;-77
2022/08/05 09:16:11;;;;;;;0.40;0.40;;;;;;;21.81;64.28;101756.03;5021509;28;20129;-77
2022/08/05 09:18:37;;;;;;;3.70;0.30;;;;;;;21.89;65.06;101756.25;5018665;28;20045;-77
2022/08/05 09:21:03;;;;;;;0.52;0.52;;;;;;;21.89;64.86;101753.56;5027930;28;20041;-75
2022/08/05 09:23:29;;;;;;;0.30;0.30;;;;;;;21.83;63.34;101751.34;5019279;28;20113;-75
2022/08/05 09:26:18;;;;;;;0.50;0.50;;;;;;;21.90;62.94;101755.28;5030852;28;20116;-76
2022/08/05 09:28:46;;;;;;;0.30;0.30;;;;;;;22.02;63.74;101749.88;5021615;28;20029;-73
2022/08/05 09:31:14;;;;;;;0.45;0.30;;;;;;;22.02;62.61;101752.59;5020508;28;20060;-73
2022/08/05 09:33:48;;;;;;;0.88;0.30;;;;;;;21.97;61.78;101758.34;5020831;28;20041;-73
2022/08/05 09:36:13;;;;;;;0.60;0.30;;;;;;;21.99;63.27;101759.06;5022187;28;20560;-74
2022/08/05 09:38:54;;;;;;;0.22;0.20;;;;;;;22.02;58.12;101763.38;5023536;28;20036;-74
2022/08/05 09:41:20;;;;;;;0.30;0.30;;;;;;;21.89;61.88;101756.25;5013539;28;20036;-74
2022/08/05 09:43:45;;;;;;;0.30;0.30;;;;;;;21.96;60.95;101751.25;5026460;28;20037;-74
2022/08/05 09:46:28;;;;;;;0.20;0.20;;;;;;;22.02;55.52;101756.16;5027360;28;20032;-73
2022/08/05 09:49:06;;;;;;;0.25;0.20;;;;;;;22.06;58.13;101745.97;5026322;28;20036;-73
2022/08/05 09:51:33;;;;;;;0.35;0.28;;;;;;;22.21;58.63;101760.03;5041149;28;20585;-74
2022/08/05 09:53:59;;;;;;;0.30;0.22;;;;;;;22.14;55.14;101766.91;5027030;28;20042;-72
2022/08/05 09:56:29;;;;;;;0.30;0.30;;;;;;;22.00;56.75;101768.88;5026691;28;20076;-73
2022/08/05 09:59:04;;;;;;;0.25;0.20;;;;;;;22.09;56.03;101768.16;5025190;28;20037;-74
2022/08/05 10:01:35;;;;;;;0.20;0.20;;;;;;;22.27;56.87;101764.94;5025148;28;20379;-73
2022/08/05 10:04:13;;;;;;;0.43;0.40;;;;;;;22.42;55.74;101776.31;5022945;28;20060;-76
2022/08/05 10:06:55;;;;;;;0.68;0.40;;;;;;;22.45;54.25;101783.31;5025574;28;20051;-76
2022/08/05 10:09:21;;;;;;;0.98;0.30;;;;;;;22.56;55.10;101791.44;5025234;28;20026;-76
2022/08/05 10:11:47;;;;;;;0.52;0.30;;;;;;;22.63;52.77;101798.03;5025602;28;20045;-78
2022/08/05 10:14:30;;;;;;;0.50;0.35;;;;;;;22.57;53.54;101793.13;5022958;28;20049;-78
2022/08/05 10:17:11;;;;;;;0.90;0.50;;;;;;;22.43;52.87;101793.38;5022878;28;20057;-75
2022/08/05 10:19:37;;;;;;;0.20;0.20;;;;;;;22.20;54.52;101796.06;5018180;28;20416;-76
2022/08/05 10:22:05;;;;;;;0.65;0.30;;;;;;;22.08;55.34;101796.09;5021834;28;20037;-75
2022/08/05 10:24:32;;;;;;;0.35;0.30;;;;;;;22.04;54.96;101789.22;5022674;28;20584;-76
2022/08/05 10:26:58;;;;;;;0.98;0.30;;;;;;;21.90;54.54;101787.63;5022112;28;20029;-75
2022/08/05 10:29:26;;;;;;;0.43;0.20;;;;;;;21.75;54.70;101792.41;5024908;28;20033;-75
2022/08/05 10:31:52;;;;;;;0.30;0.30;;;;;;;21.77;54.50;101800.34;5023156;28;20069;-75
2022/08/05 10:34:18;;;;;;;0.98;0.30;;;;;;;21.76;55.52;101798.63;5004884;28;20040;-73
2022/08/05 10:36:44;;;;;;;0.30;0.30;;;;;;;21.77;54.81;101806.59;5022130;28;20081;-76
2022/08/05 10:39:29;;;;;;;0.28;0.28;;;;;;;21.72;52.23;101808.78;5013023;28;20518;-77
2022/08/05 10:42:00;;;;;;;0.30;0.30;;;;;;;21.66;54.18;101811.94;5032018;28;20496;-76
2022/08/05 10:44:26;;;;;;;0.47;0.30;;;;;;;21.52;54.74;101808.47;5021421;28;20266;-77
2022/08/05 10:46:54;;;;;;;0.75;0.30;;;;;;;21.49;54.40;101814.09;5019995;28;20553;-77
2022/08/05 10:49:24;;;;;;;0.30;0.30;;;;;;;21.44;54.63;101822.53;5018586;28;20037;-75
2022/08/05 10:51:57;;;;;;;0.50;0.30;;;;;;;21.27;55.07;101825.66;5018097;28;20537;-75
2022/08/05 10:54:24;;;;;;;0.32;0.30;;;;;;;21.14;55.99;101836.50;5020516;28;20459;-75
2022/08/05 10:56:56;;;;;;;0.88;0.32;;;;;;;21.13;56.42;101838.31;5030493;28;20037;-76
2022/08/05 10:59:26;;;;;;;1.02;0.60;;;;;;;21.16;56.28;101842.63;5024363;28;20049;-76
2022/08/05 11:02:11;;;;;;;2.20;0.40;;;;;;;21.10;54.07;101851.16;5024497;28;20045;-77
2022/08/05 11:04:43;;;;;;;0.30;0.30;;;;;;;20.93;55.82;101863.19;5018761;28;20036;-76
2022/08/05 11:07:11;;;;;;;0.22;0.22;;;;;;;20.97;55.85;101862.81;4994774;28;20396;-75
2022/08/05 11:09:51;;;;;;;1.40;0.30;;;;;;;21.03;55.79;101867.75;5022257;28;20021;-75
2022/08/05 11:12:23;;;;;;;0.30;0.30;;;;;;;21.05;56.39;101877.53;5003639;28;20037;-76
2022/08/05 11:15:04;;;;;;;0.30;0.23;;;;;;;21.05;55.77;101888.31;5028014;28;20403;-76
2022/08/05 11:17:32;;;;;;;0.20;0.20;;;;;;;20.89;56.08;101893.00;5023374;28;20422;-75
2022/08/05 11:19:58;;;;;;;1.00;0.28;;;;;;;20.73;55.96;101895.94;4997930;28;20095;-76
2022/08/05 11:22:39;;;;;;;0.30;0.30;;;;;;;20.57;56.57;101903.38;5019517;28;20037;-76
2022/08/05 11:25:34;;;;;;;2.75;0.65;;;;;;;20.51;57.86;101910.06;5011788;28;20053;-76
2022/08/05 11:28:18;;;;;;;1.00;0.32;;;;;;;20.50;57.77;101900.28;4996833;28;20109;-76
2022/08/05 11:30:56;;;;;;;1.20;0.30;;;;;;;20.47;57.66;101920.16;5024685;28;20522;-75